sensor_id;sensor_type;location;lat;lon;timestamp;temperature;humidity
11700;DHT22;5906;51.660;6.674;2023-03-03T00:01:54;1.90;99.90
11700;DHT22;5906;51.660;6.674;2023-03-03T00:04:22;1.80;99.90
11700;DHT22;5906;51.660;6.674;2023-03-03T00:06:48;1.90;99.90
11700;DHT22;5906;51.660;6.674;2023-03-03T00:09:16;1.80;99.90
11700;DHT22;5906;51.660;6.674;2023-03-03T00:11:46;1.90;99.90
11700;DHT22;5906;51.660;6.674;2023-03-03T00:14:28;1.90;99.90
11700;DHT22;5906;51.660;6.674;2023-03-03T00:16:56;1.90;99.90
11700;DHT22;5906;51.660;6.674;2023-03-03T00:19:23;1.80;99.90
11700;DHT22;5906;51.660;6.674;2023-03-03T00:21:51;1.80;99.90
11700;DHT22;5906;51.660;6.674;2023-03-03T00:24:34;1.90;99.90
11700;DHT22;5906;51.660;6.674;2023-03-03T00:29:58;1.90;99.90
11700;DHT22;5906;51.660;6.674;2023-03-03T00:32:32;2.00;99.90
11700;DHT22;5906;51.660;6.674;2023-03-03T00:37:59;2.10;99.90
11700;DHT22;5906;51.660;6.674;2023-03-03T00:40:37;2.10;99.90
11700;DHT22;5906;51.660;6.674;2023-03-03T00:43:21;2.00;99.90
11700;DHT22;5906;51.660;6.674;2023-03-03T00:45:54;2.10;99.90
11700;DHT22;5906;51.660;6.674;2023-03-03T00:48:31;2.00;99.90
11700;DHT22;5906;51.660;6.674;2023-03-03T00:51:25;2.10;99.90
11700;DHT22;5906;51.660;6.674;2023-03-03T00:53:53;2.10;99.90
11700;DHT22;5906;51.660;6.674;2023-03-03T00:56:21;2.10;99.90
11700;DHT22;5906;51.660;6.674;2023-03-03T00:58:49;2.10;99.90
11700;DHT22;5906;51.660;6.674;2023-03-03T01:01:17;2.10;99.90
11700;DHT22;5906;51.660;6.674;2023-03-03T01:03:44;2.00;99.90
11700;DHT22;5906;51.660;6.674;2023-03-03T01:06:12;2.00;99.90
11700;DHT22;5906;51.660;6.674;2023-03-03T01:08:39;2.00;99.90
11700;DHT22;5906;51.660;6.674;2023-03-03T01:11:12;2.00;99.90
11700;DHT22;5906;51.660;6.674;2023-03-03T01:13:40;1.90;99.90
11700;DHT22;5906;51.660;6.674;2023-03-03T01:16:08;1.90;99.90
11700;DHT22;5906;51.660;6.674;2023-03-03T01:18:36;1.90;99.90
11700;DHT22;5906;51.660;6.674;2023-03-03T01:21:03;1.80;99.90
11700;DHT22;5906;51.660;6.674;2023-03-03T01:23:31;1.80;99.90
11700;DHT22;5906;51.660;6.674;2023-03-03T01:25:58;1.80;99.90
11700;DHT22;5906;51.660;6.674;2023-03-03T01:28:25;1.70;99.90
11700;DHT22;5906;51.660;6.674;2023-03-03T01:30:52;1.70;99.90
11700;DHT22;5906;51.660;6.674;2023-03-03T01:33:19;1.70;99.90
11700;DHT22;5906;51.660;6.674;2023-03-03T01:35:47;1.70;99.90
11700;DHT22;5906;51.660;6.674;2023-03-03T01:38:15;1.60;99.90
11700;DHT22;5906;51.660;6.674;2023-03-03T01:40:42;1.60;99.90
11700;DHT22;5906;51.660;6.674;2023-03-03T01:43:13;1.60;99.90
11700;DHT22;5906;51.660;6.674;2023-03-03T01:48:24;1.60;99.90
11700;DHT22;5906;51.660;6.674;2023-03-03T01:50:59;1.60;99.90
11700;DHT22;5906;51.660;6.674;2023-03-03T01:53:35;1.60;99.90
11700;DHT22;5906;51.660;6.674;2023-03-03T01:56:06;1.60;99.90
11700;DHT22;5906;51.660;6.674;2023-03-03T01:58:39;1.60;99.90
11700;DHT22;5906;51.660;6.674;2023-03-03T02:01:11;1.60;99.90
11700;DHT22;5906;51.660;6.674;2023-03-03T02:03:41;1.60;99.90
11700;DHT22;5906;51.660;6.674;2023-03-03T02:06:13;1.60;99.90
11700;DHT22;5906;51.660;6.674;2023-03-03T02:11:13;1.50;99.90
11700;DHT22;5906;51.660;6.674;2023-03-03T02:13:42;1.50;99.90
11700;DHT22;5906;51.660;6.674;2023-03-03T02:16:09;1.50;99.90
11700;DHT22;5906;51.660;6.674;2023-03-03T02:18:36;1.60;99.90
11700;DHT22;5906;51.660;6.674;2023-03-03T02:21:11;1.60;99.90
11700;DHT22;5906;51.660;6.674;2023-03-03T02:26:15;1.50;99.90
11700;DHT22;5906;51.660;6.674;2023-03-03T02:28:42;1.50;99.90
11700;DHT22;5906;51.660;6.674;2023-03-03T02:31:13;1.50;99.90
11700;DHT22;5906;51.660;6.674;2023-03-03T02:33:46;1.50;99.90
11700;DHT22;5906;51.660;6.674;2023-03-03T02:36:20;1.50;99.90
11700;DHT22;5906;51.660;6.674;2023-03-03T02:38:52;1.60;99.90
11700;DHT22;5906;51.660;6.674;2023-03-03T02:41:40;1.50;99.90
11700;DHT22;5906;51.660;6.674;2023-03-03T02:46:39;1.50;99.90
11700;DHT22;5906;51.660;6.674;2023-03-03T02:49:08;1.50;99.90
11700;DHT22;5906;51.660;6.674;2023-03-03T02:51:36;1.50;99.90
11700;DHT22;5906;51.660;6.674;2023-03-03T02:54:04;1.60;99.90
11700;DHT22;5906;51.660;6.674;2023-03-03T02:56:32;1.50;99.90
11700;DHT22;5906;51.660;6.674;2023-03-03T02:58:59;1.50;99.90
11700;DHT22;5906;51.660;6.674;2023-03-03T03:01:26;1.50;99.90
11700;DHT22;5906;51.660;6.674;2023-03-03T03:03:53;1.40;99.90
11700;DHT22;5906;51.660;6.674;2023-03-03T03:06:20;1.40;99.90
11700;DHT22;5906;51.660;6.674;2023-03-03T03:08:47;1.50;99.90
11700;DHT22;5906;51.660;6.674;2023-03-03T03:11:14;1.50;99.90
11700;DHT22;5906;51.660;6.674;2023-03-03T03:13:41;1.50;99.90
11700;DHT22;5906;51.660;6.674;2023-03-03T03:16:08;1.50;99.90
11700;DHT22;5906;51.660;6.674;2023-03-03T03:18:36;1.40;99.90
11700;DHT22;5906;51.660;6.674;2023-03-03T03:21:08;1.50;99.90
11700;DHT22;5906;51.660;6.674;2023-03-03T03:23:35;1.50;99.90
11700;DHT22;5906;51.660;6.674;2023-03-03T03:26:02;1.40;99.90
11700;DHT22;5906;51.660;6.674;2023-03-03T03:28:29;1.40;99.90
11700;DHT22;5906;51.660;6.674;2023-03-03T03:30:56;1.50;99.90
11700;DHT22;5906;51.660;6.674;2023-03-03T03:33:24;1.40;99.90
11700;DHT22;5906;51.660;6.674;2023-03-03T03:35:51;1.40;99.90
11700;DHT22;5906;51.660;6.674;2023-03-03T03:38:18;1.40;99.90
11700;DHT22;5906;51.660;6.674;2023-03-03T03:40:45;1.40;99.90
11700;DHT22;5906;51.660;6.674;2023-03-03T03:43:12;1.40;99.90
11700;DHT22;5906;51.660;6.674;2023-03-03T03:45:41;1.40;99.90
11700;DHT22;5906;51.660;6.674;2023-03-03T03:48:09;1.40;99.90
11700;DHT22;5906;51.660;6.674;2023-03-03T03:50:36;1.40;99.90
11700;DHT22;5906;51.660;6.674;2023-03-03T03:53:05;1.50;99.90
11700;DHT22;5906;51.660;6.674;2023-03-03T03:55:32;1.40;99.90
11700;DHT22;5906;51.660;6.674;2023-03-03T03:57:59;1.40;99.90
11700;DHT22;5906;51.660;6.674;2023-03-03T04:00:26;1.50;99.90
11700;DHT22;5906;51.660;6.674;2023-03-03T04:02:53;1.40;99.90
11700;DHT22;5906;51.660;6.674;2023-03-03T04:05:21;1.40;99.90
11700;DHT22;5906;51.660;6.674;2023-03-03T04:07:48;1.40;99.90
11700;DHT22;5906;51.660;6.674;2023-03-03T04:10:15;1.50;99.90
11700;DHT22;5906;51.660;6.674;2023-03-03T04:12:43;1.40;99.90
11700;DHT22;5906;51.660;6.674;2023-03-03T04:15:12;1.40;99.90
11700;DHT22;5906;51.660;6.674;2023-03-03T04:17:40;1.50;99.90
11700;DHT22;5906;51.660;6.674;2023-03-03T04:20:09;1.40;99.90
11700;DHT22;5906;51.660;6.674;2023-03-03T04:22:36;1.40;99.90
11700;DHT22;5906;51.660;6.674;2023-03-03T04:25:04;1.40;99.90
11700;DHT22;5906;51.660;6.674;2023-03-03T04:27:33;1.40;99.90
11700;DHT22;5906;51.660;6.674;2023-03-03T04:30:01;1.50;99.90
11700;DHT22;5906;51.660;6.674;2023-03-03T04:32:28;1.50;99.90
11700;DHT22;5906;51.660;6.674;2023-03-03T04:34:56;1.50;99.90
11700;DHT22;5906;51.660;6.674;2023-03-03T04:37:34;1.50;99.90
11700;DHT22;5906;51.660;6.674;2023-03-03T04:40:04;1.50;99.90
11700;DHT22;5906;51.660;6.674;2023-03-03T04:42:31;1.50;99.90
11700;DHT22;5906;51.660;6.674;2023-03-03T04:44:58;1.60;99.90
11700;DHT22;5906;51.660;6.674;2023-03-03T04:47:25;1.60;99.90
11700;DHT22;5906;51.660;6.674;2023-03-03T04:49:52;1.60;99.90
11700;DHT22;5906;51.660;6.674;2023-03-03T04:52:20;1.60;99.90
11700;DHT22;5906;51.660;6.674;2023-03-03T04:54:47;1.60;99.90
11700;DHT22;5906;51.660;6.674;2023-03-03T04:57:13;1.60;99.90
11700;DHT22;5906;51.660;6.674;2023-03-03T04:59:40;1.70;99.90
11700;DHT22;5906;51.660;6.674;2023-03-03T05:02:08;1.70;99.90
11700;DHT22;5906;51.660;6.674;2023-03-03T05:04:35;1.80;99.90
11700;DHT22;5906;51.660;6.674;2023-03-03T05:07:02;1.80;99.90
11700;DHT22;5906;51.660;6.674;2023-03-03T05:09:29;1.80;99.90
11700;DHT22;5906;51.660;6.674;2023-03-03T05:11:56;1.80;99.90
11700;DHT22;5906;51.660;6.674;2023-03-03T05:14:23;1.80;99.90
11700;DHT22;5906;51.660;6.674;2023-03-03T05:16:50;1.80;99.90
11700;DHT22;5906;51.660;6.674;2023-03-03T05:19:17;1.80;99.90
11700;DHT22;5906;51.660;6.674;2023-03-03T05:21:44;1.90;99.90
11700;DHT22;5906;51.660;6.674;2023-03-03T05:24:13;1.80;99.90
11700;DHT22;5906;51.660;6.674;2023-03-03T05:26:40;1.80;99.90
11700;DHT22;5906;51.660;6.674;2023-03-03T05:29:07;1.80;99.90
11700;DHT22;5906;51.660;6.674;2023-03-03T05:31:35;1.80;99.90
11700;DHT22;5906;51.660;6.674;2023-03-03T05:34:02;1.80;99.90
11700;DHT22;5906;51.660;6.674;2023-03-03T05:36:29;1.90;99.90
11700;DHT22;5906;51.660;6.674;2023-03-03T05:38:56;1.90;99.90
11700;DHT22;5906;51.660;6.674;2023-03-03T05:41:23;2.00;99.90
11700;DHT22;5906;51.660;6.674;2023-03-03T05:43:50;2.00;99.90
11700;DHT22;5906;51.660;6.674;2023-03-03T05:46:17;1.90;99.90
11700;DHT22;5906;51.660;6.674;2023-03-03T05:48:44;2.00;99.90
11700;DHT22;5906;51.660;6.674;2023-03-03T05:51:11;2.00;99.90
11700;DHT22;5906;51.660;6.674;2023-03-03T05:53:38;1.90;99.90
11700;DHT22;5906;51.660;6.674;2023-03-03T05:56:06;1.90;99.90
11700;DHT22;5906;51.660;6.674;2023-03-03T05:58:33;1.90;99.90
11700;DHT22;5906;51.660;6.674;2023-03-03T06:01:01;1.90;99.90
11700;DHT22;5906;51.660;6.674;2023-03-03T06:03:29;2.00;99.90
11700;DHT22;5906;51.660;6.674;2023-03-03T06:05:57;2.00;99.90
11700;DHT22;5906;51.660;6.674;2023-03-03T06:08:24;2.10;99.90
11700;DHT22;5906;51.660;6.674;2023-03-03T06:10:51;2.10;99.90
11700;DHT22;5906;51.660;6.674;2023-03-03T06:13:18;2.10;99.90
11700;DHT22;5906;51.660;6.674;2023-03-03T06:15:45;2.20;99.90
11700;DHT22;5906;51.660;6.674;2023-03-03T06:18:12;2.10;99.90
11700;DHT22;5906;51.660;6.674;2023-03-03T06:20:39;2.10;99.90
11700;DHT22;5906;51.660;6.674;2023-03-03T06:23:06;2.10;99.90
11700;DHT22;5906;51.660;6.674;2023-03-03T06:25:33;2.10;99.90
11700;DHT22;5906;51.660;6.674;2023-03-03T06:28:02;2.00;99.90
11700;DHT22;5906;51.660;6.674;2023-03-03T06:30:32;2.10;99.90
11700;DHT22;5906;51.660;6.674;2023-03-03T06:32:59;2.10;99.90
11700;DHT22;5906;51.660;6.674;2023-03-03T06:35:26;2.00;99.90
11700;DHT22;5906;51.660;6.674;2023-03-03T06:37:53;2.10;99.90
11700;DHT22;5906;51.660;6.674;2023-03-03T06:40:20;2.00;99.90
11700;DHT22;5906;51.660;6.674;2023-03-03T06:42:47;2.00;99.90
11700;DHT22;5906;51.660;6.674;2023-03-03T06:45:14;2.10;99.90
11700;DHT22;5906;51.660;6.674;2023-03-03T06:47:41;2.10;99.90
11700;DHT22;5906;51.660;6.674;2023-03-03T06:50:11;2.10;99.90
11700;DHT22;5906;51.660;6.674;2023-03-03T06:52:38;2.10;99.90
11700;DHT22;5906;51.660;6.674;2023-03-03T06:55:16;2.20;99.90
11700;DHT22;5906;51.660;6.674;2023-03-03T06:57:44;2.10;99.90
11700;DHT22;5906;51.660;6.674;2023-03-03T07:00:17;2.20;99.90
11700;DHT22;5906;51.660;6.674;2023-03-03T07:03:16;2.20;99.90
11700;DHT22;5906;51.660;6.674;2023-03-03T07:05:44;2.20;99.90
11700;DHT22;5906;51.660;6.674;2023-03-03T07:08:19;2.20;99.90
11700;DHT22;5906;51.660;6.674;2023-03-03T07:10:47;2.20;99.90
11700;DHT22;5906;51.660;6.674;2023-03-03T07:13:23;2.20;99.90
11700;DHT22;5906;51.660;6.674;2023-03-03T07:16:00;2.30;99.90
11700;DHT22;5906;51.660;6.674;2023-03-03T07:19:28;2.30;99.90
11700;DHT22;5906;51.660;6.674;2023-03-03T07:21:37;2.20;99.90
11700;DHT22;5906;51.660;6.674;2023-03-03T07:24:29;2.20;99.90
11700;DHT22;5906;51.660;6.674;2023-03-03T07:27:19;2.30;99.90
11700;DHT22;5906;51.660;6.674;2023-03-03T07:29:50;2.40;99.90
11700;DHT22;5906;51.660;6.674;2023-03-03T07:32:25;2.40;99.90
11700;DHT22;5906;51.660;6.674;2023-03-03T07:34:54;2.40;99.90
11700;DHT22;5906;51.660;6.674;2023-03-03T07:39:58;2.50;99.90
11700;DHT22;5906;51.660;6.674;2023-03-03T07:42:38;2.40;99.90
11700;DHT22;5906;51.660;6.674;2023-03-03T07:45:41;2.50;99.90
11700;DHT22;5906;51.660;6.674;2023-03-03T07:50:40;2.50;99.90
11700;DHT22;5906;51.660;6.674;2023-03-03T07:53:26;2.50;99.90
11700;DHT22;5906;51.660;6.674;2023-03-03T07:55:53;2.50;99.90
11700;DHT22;5906;51.660;6.674;2023-03-03T07:58:37;2.50;99.90
11700;DHT22;5906;51.660;6.674;2023-03-03T08:01:28;2.40;99.90
11700;DHT22;5906;51.660;6.674;2023-03-03T08:03:57;2.40;99.90
11700;DHT22;5906;51.660;6.674;2023-03-03T08:06:46;2.50;99.90
11700;DHT22;5906;51.660;6.674;2023-03-03T08:14:33;2.60;99.90
11700;DHT22;5906;51.660;6.674;2023-03-03T08:17:01;2.70;99.90
11700;DHT22;5906;51.660;6.674;2023-03-03T08:19:33;2.70;99.90
11700;DHT22;5906;51.660;6.674;2023-03-03T08:22:11;2.70;99.90
11700;DHT22;5906;51.660;6.674;2023-03-03T08:24:39;2.60;99.90
11700;DHT22;5906;51.660;6.674;2023-03-03T08:27:06;2.60;99.90
11700;DHT22;5906;51.660;6.674;2023-03-03T08:29:33;2.60;99.90
11700;DHT22;5906;51.660;6.674;2023-03-03T08:32:00;2.60;99.90
11700;DHT22;5906;51.660;6.674;2023-03-03T08:34:27;2.70;99.90
11700;DHT22;5906;51.660;6.674;2023-03-03T08:36:54;2.70;99.90
11700;DHT22;5906;51.660;6.674;2023-03-03T08:39:23;2.70;99.90
11700;DHT22;5906;51.660;6.674;2023-03-03T08:41:50;2.70;99.90
11700;DHT22;5906;51.660;6.674;2023-03-03T08:44:17;2.70;99.90
11700;DHT22;5906;51.660;6.674;2023-03-03T08:46:46;2.80;99.90
11700;DHT22;5906;51.660;6.674;2023-03-03T08:49:13;2.80;99.90
11700;DHT22;5906;51.660;6.674;2023-03-03T08:51:40;3.00;99.90
11700;DHT22;5906;51.660;6.674;2023-03-03T08:54:07;3.00;99.90
11700;DHT22;5906;51.660;6.674;2023-03-03T08:56:35;3.00;99.90
11700;DHT22;5906;51.660;6.674;2023-03-03T08:59:02;3.10;99.90
11700;DHT22;5906;51.660;6.674;2023-03-03T09:01:33;3.10;99.90
11700;DHT22;5906;51.660;6.674;2023-03-03T09:04:00;3.10;99.90
11700;DHT22;5906;51.660;6.674;2023-03-03T09:06:28;3.10;99.90
11700;DHT22;5906;51.660;6.674;2023-03-03T09:08:55;3.20;99.90
11700;DHT22;5906;51.660;6.674;2023-03-03T09:11:26;3.20;99.90
11700;DHT22;5906;51.660;6.674;2023-03-03T09:14:09;3.20;99.90
11700;DHT22;5906;51.660;6.674;2023-03-03T09:16:40;3.30;99.90
11700;DHT22;5906;51.660;6.674;2023-03-03T09:19:26;3.40;99.90
11700;DHT22;5906;51.660;6.674;2023-03-03T09:22:10;3.40;99.90
11700;DHT22;5906;51.660;6.674;2023-03-03T09:24:43;3.40;99.90
11700;DHT22;5906;51.660;6.674;2023-03-03T09:27:37;3.40;99.90
11700;DHT22;5906;51.660;6.674;2023-03-03T09:32:59;3.40;99.90
11700;DHT22;5906;51.660;6.674;2023-03-03T09:35:37;3.50;99.90
11700;DHT22;5906;51.660;6.674;2023-03-03T09:38:29;3.50;99.90
11700;DHT22;5906;51.660;6.674;2023-03-03T09:46:33;3.50;99.90
11700;DHT22;5906;51.660;6.674;2023-03-03T09:52:00;3.60;99.90
11700;DHT22;5906;51.660;6.674;2023-03-03T09:57:16;3.80;99.90
11700;DHT22;5906;51.660;6.674;2023-03-03T10:02:37;3.80;99.90
11700;DHT22;5906;51.660;6.674;2023-03-03T10:05:18;4.00;99.90
11700;DHT22;5906;51.660;6.674;2023-03-03T10:07:54;4.10;99.90
11700;DHT22;5906;51.660;6.674;2023-03-03T10:11:01;4.20;99.90
11700;DHT22;5906;51.660;6.674;2023-03-03T10:30:17;4.30;99.90
11700;DHT22;5906;51.660;6.674;2023-03-03T10:33:31;4.40;99.90
11700;DHT22;5906;51.660;6.674;2023-03-03T10:36:43;4.40;99.90
11700;DHT22;5906;51.660;6.674;2023-03-03T10:39:28;4.60;99.90
11700;DHT22;5906;51.660;6.674;2023-03-03T10:42:06;4.70;99.90
11700;DHT22;5906;51.660;6.674;2023-03-03T10:44:38;4.70;99.90
11700;DHT22;5906;51.660;6.674;2023-03-03T10:50:49;5.00;99.90
11700;DHT22;5906;51.660;6.674;2023-03-03T10:59:09;5.10;99.90
11700;DHT22;5906;51.660;6.674;2023-03-03T11:01:58;5.00;99.90
11700;DHT22;5906;51.660;6.674;2023-03-03T11:21:30;5.00;99.90
11700;DHT22;5906;51.660;6.674;2023-03-03T11:23:54;5.20;99.90
11700;DHT22;5906;51.660;6.674;2023-03-03T11:35:17;6.10;99.90
11700;DHT22;5906;51.660;6.674;2023-03-03T11:40:59;6.20;99.90
11700;DHT22;5906;51.660;6.674;2023-03-03T11:43:37;6.10;99.90
11700;DHT22;5906;51.660;6.674;2023-03-03T11:46:46;6.20;99.90
11700;DHT22;5906;51.660;6.674;2023-03-03T11:49:21;6.20;99.90
11700;DHT22;5906;51.660;6.674;2023-03-03T11:55:18;6.50;99.90
11700;DHT22;5906;51.660;6.674;2023-03-03T12:01:25;6.80;99.90
11700;DHT22;5906;51.660;6.674;2023-03-03T12:12:47;7.90;99.90
11700;DHT22;5906;51.660;6.674;2023-03-03T12:16:07;8.10;99.90
11700;DHT22;5906;51.660;6.674;2023-03-03T12:32:43;8.60;99.90
11700;DHT22;5906;51.660;6.674;2023-03-03T12:35:24;8.60;99.90
11700;DHT22;5906;51.660;6.674;2023-03-03T12:41:02;8.50;99.90
11700;DHT22;5906;51.660;6.674;2023-03-03T12:49:06;8.80;99.90
11700;DHT22;5906;51.660;6.674;2023-03-03T12:51:47;8.80;99.90
11700;DHT22;5906;51.660;6.674;2023-03-03T12:57:33;8.90;99.90
11700;DHT22;5906;51.660;6.674;2023-03-03T13:07:40;8.80;99.90
11700;DHT22;5906;51.660;6.674;2023-03-03T13:13:05;9.10;99.90
11700;DHT22;5906;51.660;6.674;2023-03-03T13:15:38;9.20;99.90
11700;DHT22;5906;51.660;6.674;2023-03-03T13:26:46;9.40;99.90
11700;DHT22;5906;51.660;6.674;2023-03-03T13:29:34;9.40;99.90
11700;DHT22;5906;51.660;6.674;2023-03-03T13:34:46;9.60;99.90
11700;DHT22;5906;51.660;6.674;2023-03-03T13:37:25;9.50;99.90
11700;DHT22;5906;51.660;6.674;2023-03-03T13:39:55;9.50;99.90
11700;DHT22;5906;51.660;6.674;2023-03-03T13:42:34;9.40;99.90
11700;DHT22;5906;51.660;6.674;2023-03-03T13:50:58;9.40;99.90
11700;DHT22;5906;51.660;6.674;2023-03-03T14:07:48;9.40;99.90
11700;DHT22;5906;51.660;6.674;2023-03-03T14:13:11;9.40;99.90
11700;DHT22;5906;51.660;6.674;2023-03-03T14:16:08;9.50;99.90
11700;DHT22;5906;51.660;6.674;2023-03-03T14:19:01;9.50;99.90
11700;DHT22;5906;51.660;6.674;2023-03-03T14:24:15;9.40;99.90
11700;DHT22;5906;51.660;6.674;2023-03-03T14:26:57;9.20;99.90
11700;DHT22;5906;51.660;6.674;2023-03-03T14:31:53;8.90;99.90
11700;DHT22;5906;51.660;6.674;2023-03-03T14:34:36;8.80;99.90
11700;DHT22;5906;51.660;6.674;2023-03-03T14:37:28;8.90;99.90
11700;DHT22;5906;51.660;6.674;2023-03-03T14:40:31;8.90;99.90
11700;DHT22;5906;51.660;6.674;2023-03-03T14:43:01;9.00;99.90
11700;DHT22;5906;51.660;6.674;2023-03-03T14:45:33;9.10;99.90
11700;DHT22;5906;51.660;6.674;2023-03-03T14:48:17;9.00;99.90
11700;DHT22;5906;51.660;6.674;2023-03-03T14:53:33;9.10;99.90
11700;DHT22;5906;51.660;6.674;2023-03-03T14:58:49;9.10;99.90
11700;DHT22;5906;51.660;6.674;2023-03-03T15:09:36;8.90;99.90
11700;DHT22;5906;51.660;6.674;2023-03-03T15:12:22;8.90;99.90
11700;DHT22;5906;51.660;6.674;2023-03-03T15:14:52;8.80;99.90
11700;DHT22;5906;51.660;6.674;2023-03-03T15:29:16;8.60;99.90
11700;DHT22;5906;51.660;6.674;2023-03-03T15:32:15;8.40;99.90
11700;DHT22;5906;51.660;6.674;2023-03-03T15:35:03;8.50;99.90
11700;DHT22;5906;51.660;6.674;2023-03-03T15:40:23;8.40;99.90
11700;DHT22;5906;51.660;6.674;2023-03-03T15:45:31;8.50;99.90
11700;DHT22;5906;51.660;6.674;2023-03-03T15:51:07;8.50;99.90
11700;DHT22;5906;51.660;6.674;2023-03-03T15:56:52;8.40;99.90
11700;DHT22;5906;51.660;6.674;2023-03-03T16:02:21;8.20;99.90
11700;DHT22;5906;51.660;6.674;2023-03-03T16:05:06;8.10;99.90
11700;DHT22;5906;51.660;6.674;2023-03-03T16:08:09;8.10;99.90
11700;DHT22;5906;51.660;6.674;2023-03-03T16:11:12;8.00;99.90
11700;DHT22;5906;51.660;6.674;2023-03-03T16:14:00;7.90;99.90
11700;DHT22;5906;51.660;6.674;2023-03-03T16:19:10;7.90;99.90
11700;DHT22;5906;51.660;6.674;2023-03-03T16:29:41;7.90;99.90
11700;DHT22;5906;51.660;6.674;2023-03-03T16:35:18;7.80;99.90
11700;DHT22;5906;51.660;6.674;2023-03-03T16:38:08;7.90;99.90
11700;DHT22;5906;51.660;6.674;2023-03-03T16:40:49;7.90;99.90
11700;DHT22;5906;51.660;6.674;2023-03-03T16:45:49;7.90;99.90
11700;DHT22;5906;51.660;6.674;2023-03-03T16:49:00;7.90;99.90
11700;DHT22;5906;51.660;6.674;2023-03-03T16:54:17;7.90;99.90
11700;DHT22;5906;51.660;6.674;2023-03-03T17:30:28;7.40;99.90
11700;DHT22;5906;51.660;6.674;2023-03-03T17:33:26;7.40;99.90
11700;DHT22;5906;51.660;6.674;2023-03-03T17:36:17;7.50;99.90
11700;DHT22;5906;51.660;6.674;2023-03-03T17:47:15;7.40;99.90
11700;DHT22;5906;51.660;6.674;2023-03-03T17:52:46;7.30;99.90
11700;DHT22;5906;51.660;6.674;2023-03-03T17:55:42;7.20;99.90
11700;DHT22;5906;51.660;6.674;2023-03-03T18:09:40;7.10;99.90
11700;DHT22;5906;51.660;6.674;2023-03-03T18:12:35;7.10;99.90
11700;DHT22;5906;51.660;6.674;2023-03-03T18:15:34;7.10;99.90
11700;DHT22;5906;51.660;6.674;2023-03-03T18:18:29;7.10;99.90
11700;DHT22;5906;51.660;6.674;2023-03-03T18:20:56;7.00;99.90
11700;DHT22;5906;51.660;6.674;2023-03-03T18:34:36;6.90;99.90
11700;DHT22;5906;51.660;6.674;2023-03-03T18:37:07;6.90;99.90
11700;DHT22;5906;51.660;6.674;2023-03-03T18:39:46;6.80;99.90
11700;DHT22;5906;51.660;6.674;2023-03-03T18:44:51;6.90;99.90
11700;DHT22;5906;51.660;6.674;2023-03-03T18:47:18;6.90;99.90
11700;DHT22;5906;51.660;6.674;2023-03-03T18:57:38;6.90;99.90
11700;DHT22;5906;51.660;6.674;2023-03-03T19:02:40;6.90;99.90
11700;DHT22;5906;51.660;6.674;2023-03-03T19:05:24;6.90;99.90
11700;DHT22;5906;51.660;6.674;2023-03-03T19:10:56;7.00;99.90
11700;DHT22;5906;51.660;6.674;2023-03-03T19:16:01;7.10;99.90
11700;DHT22;5906;51.660;6.674;2023-03-03T19:18:34;7.00;99.90
11700;DHT22;5906;51.660;6.674;2023-03-03T19:21:04;6.90;99.90
11700;DHT22;5906;51.660;6.674;2023-03-03T19:32:32;6.90;99.90
11700;DHT22;5906;51.660;6.674;2023-03-03T19:34:52;6.90;99.90
11700;DHT22;5906;51.660;6.674;2023-03-03T19:37:49;6.90;99.90
11700;DHT22;5906;51.660;6.674;2023-03-03T19:43:45;6.80;99.90
11700;DHT22;5906;51.660;6.674;2023-03-03T20:04:16;6.70;99.90
11700;DHT22;5906;51.660;6.674;2023-03-03T20:06:33;6.70;99.90
11700;DHT22;5906;51.660;6.674;2023-03-03T20:17:30;6.60;99.90
11700;DHT22;5906;51.660;6.674;2023-03-03T20:25:44;6.50;99.90
11700;DHT22;5906;51.660;6.674;2023-03-03T20:41:39;6.40;99.90
11700;DHT22;5906;51.660;6.674;2023-03-03T20:44:13;6.40;99.90
11700;DHT22;5906;51.660;6.674;2023-03-03T20:46:52;6.40;99.90
11700;DHT22;5906;51.660;6.674;2023-03-03T20:49:39;6.40;99.90
11700;DHT22;5906;51.660;6.674;2023-03-03T20:52:34;6.40;99.90
11700;DHT22;5906;51.660;6.674;2023-03-03T20:58:08;6.30;99.90
11700;DHT22;5906;51.660;6.674;2023-03-03T21:03:38;6.40;99.90
11700;DHT22;5906;51.660;6.674;2023-03-03T21:06:14;6.40;99.90
11700;DHT22;5906;51.660;6.674;2023-03-03T21:08:50;6.40;99.90
11700;DHT22;5906;51.660;6.674;2023-03-03T21:13:57;6.40;99.90
11700;DHT22;5906;51.660;6.674;2023-03-03T21:21:37;6.50;99.90
11700;DHT22;5906;51.660;6.674;2023-03-03T21:24:05;6.50;99.90
11700;DHT22;5906;51.660;6.674;2023-03-03T21:29:29;6.40;99.90
11700;DHT22;5906;51.660;6.674;2023-03-03T21:32:03;6.30;99.90
11700;DHT22;5906;51.660;6.674;2023-03-03T21:34:35;6.20;99.90
11700;DHT22;5906;51.660;6.674;2023-03-03T21:37:11;6.20;99.90
11700;DHT22;5906;51.660;6.674;2023-03-03T21:39:42;6.20;99.90
11700;DHT22;5906;51.660;6.674;2023-03-03T21:42:15;6.20;99.90
11700;DHT22;5906;51.660;6.674;2023-03-03T21:44:45;6.10;99.90
11700;DHT22;5906;51.660;6.674;2023-03-03T21:49:44;6.10;99.90
11700;DHT22;5906;51.660;6.674;2023-03-03T21:52:13;6.10;99.90
11700;DHT22;5906;51.660;6.674;2023-03-03T21:54:42;6.20;99.90
11700;DHT22;5906;51.660;6.674;2023-03-03T21:57:09;6.20;99.90
11700;DHT22;5906;51.660;6.674;2023-03-03T21:59:36;6.10;99.90
11700;DHT22;5906;51.660;6.674;2023-03-03T22:02:04;6.10;99.90
11700;DHT22;5906;51.660;6.674;2023-03-03T22:04:31;6.10;99.90
11700;DHT22;5906;51.660;6.674;2023-03-03T22:07:00;6.10;99.90
11700;DHT22;5906;51.660;6.674;2023-03-03T22:09:27;6.20;99.90
11700;DHT22;5906;51.660;6.674;2023-03-03T22:11:54;6.10;99.90
11700;DHT22;5906;51.660;6.674;2023-03-03T22:14:22;6.10;99.90
11700;DHT22;5906;51.660;6.674;2023-03-03T22:16:48;6.10;99.90
11700;DHT22;5906;51.660;6.674;2023-03-03T22:19:15;6.20;99.90
11700;DHT22;5906;51.660;6.674;2023-03-03T22:21:42;6.10;99.90
11700;DHT22;5906;51.660;6.674;2023-03-03T22:24:09;6.20;99.90
11700;DHT22;5906;51.660;6.674;2023-03-03T22:26:36;6.10;99.90
11700;DHT22;5906;51.660;6.674;2023-03-03T22:29:04;6.20;99.90
11700;DHT22;5906;51.660;6.674;2023-03-03T22:31:30;6.10;99.90
11700;DHT22;5906;51.660;6.674;2023-03-03T22:33:57;6.20;99.90
11700;DHT22;5906;51.660;6.674;2023-03-03T22:36:25;6.20;99.90
11700;DHT22;5906;51.660;6.674;2023-03-03T22:38:51;6.20;99.90
11700;DHT22;5906;51.660;6.674;2023-03-03T22:41:18;6.10;99.90
11700;DHT22;5906;51.660;6.674;2023-03-03T22:43:45;6.20;99.90
11700;DHT22;5906;51.660;6.674;2023-03-03T22:46:14;6.20;99.90
11700;DHT22;5906;51.660;6.674;2023-03-03T22:48:40;6.30;99.90
11700;DHT22;5906;51.660;6.674;2023-03-03T22:51:08;6.20;99.90
11700;DHT22;5906;51.660;6.674;2023-03-03T22:53:34;6.20;99.90
11700;DHT22;5906;51.660;6.674;2023-03-03T22:56:01;6.20;99.90
11700;DHT22;5906;51.660;6.674;2023-03-03T22:58:28;6.20;99.90
11700;DHT22;5906;51.660;6.674;2023-03-03T23:00:56;6.10;99.90
11700;DHT22;5906;51.660;6.674;2023-03-03T23:03:23;6.10;99.90
11700;DHT22;5906;51.660;6.674;2023-03-03T23:05:50;6.00;99.90
11700;DHT22;5906;51.660;6.674;2023-03-03T23:08:19;6.10;99.90
11700;DHT22;5906;51.660;6.674;2023-03-03T23:10:46;6.00;99.90
11700;DHT22;5906;51.660;6.674;2023-03-03T23:13:14;6.00;99.90
11700;DHT22;5906;51.660;6.674;2023-03-03T23:15:41;6.00;99.90
11700;DHT22;5906;51.660;6.674;2023-03-03T23:18:08;6.00;99.90
11700;DHT22;5906;51.660;6.674;2023-03-03T23:20:38;6.10;99.90
11700;DHT22;5906;51.660;6.674;2023-03-03T23:23:11;6.10;99.90
11700;DHT22;5906;51.660;6.674;2023-03-03T23:25:38;6.00;99.90
11700;DHT22;5906;51.660;6.674;2023-03-03T23:28:05;6.10;99.90
11700;DHT22;5906;51.660;6.674;2023-03-03T23:30:33;6.00;99.90